sensor_id;sensor_type;location;lat;lon;timestamp;P1;P2;P0
47709;PMS7003;33473;51.640;5.892;2023-05-07T00:03:23;9.85;12.0;9.38
47709;PMS7003;33473;51.640;5.892;2023-05-07T00:16:43;8.65;10.91;8.51
47709;PMS7003;33473;51.640;5.892;2023-05-07T00:30:02;11.77;13.31;9.82
47709;PMS7003;33473;51.640;5.892;2023-05-07T00:43:22;11.41;13.63;10.15
47709;PMS7003;33473;51.640;5.892;2023-05-07T00:56:42;12.61;14.62;10.69
47709;PMS7003;33473;51.640;5.892;2023-05-07T01:10:01;13.57;15.38;10.91
47709;PMS7003;33473;51.640;5.892;2023-05-07T01:23:21;11.65;13.85;10.36
47709;PMS7003;33473;51.640;5.892;2023-05-07T01:36:41;13.21;15.27;11.24
47709;PMS7003;33473;51.640;5.892;2023-05-07T01:50:01;15.97;17.23;12.11
47709;PMS7003;33473;51.640;5.892;2023-05-07T02:03:20;15.97;17.45;12.0
47709;PMS7003;33473;51.640;5.892;2023-05-07T02:16:40;19.45;18.87;13.2
47709;PMS7003;33473;51.640;5.892;2023-05-07T02:30:00;22.09;20.72;14.83
47709;PMS7003;33473;51.640;5.892;2023-05-07T02:43:20;22.69;21.05;14.72
47709;PMS7003;33473;51.640;5.892;2023-05-07T02:56:39;23.89;21.05;15.05
47709;PMS7003;33473;51.640;5.892;2023-05-07T03:09:59;27.13;23.34;16.03
47709;PMS7003;33473;51.640;5.892;2023-05-07T03:23:19;25.45;22.79;15.92
47709;PMS7003;33473;51.640;5.892;2023-05-07T03:36:39;27.97;24.1;16.47
47709;PMS7003;33473;51.640;5.892;2023-05-07T03:49:58;28.33;24.75;16.9
47709;PMS7003;33473;51.640;5.892;2023-05-07T04:03:18;26.41;23.44;16.14
47709;PMS7003;33473;51.640;5.892;2023-05-07T04:16:38;27.85;24.21;16.47
47709;PMS7003;33473;51.640;5.892;2023-05-07T04:29:58;26.65;23.55;16.14
47709;PMS7003;33473;51.640;5.892;2023-05-07T04:43:17;26.89;23.55;16.03
47709;PMS7003;33473;51.640;5.892;2023-05-07T04:56:37;26.65;23.55;16.25
47709;PMS7003;33473;51.640;5.892;2023-05-07T05:09:57;27.49;24.32;16.36
47709;PMS7003;33473;51.640;5.892;2023-05-07T05:23:16;28.09;24.64;16.69
47709;PMS7003;33473;51.640;5.892;2023-05-07T05:36:36;28.09;24.1;16.36
47709;PMS7003;33473;51.640;5.892;2023-05-07T05:49:56;27.37;24.1;16.47
47709;PMS7003;33473;51.640;5.892;2023-05-07T06:03:16;27.25;23.99;16.47
47709;PMS7003;33473;51.640;5.892;2023-05-07T06:16:36;25.69;22.9;16.03
47709;PMS7003;33473;51.640;5.892;2023-05-07T06:29:55;27.13;23.66;16.36
47709;PMS7003;33473;51.640;5.892;2023-05-07T06:43:15;30.37;22.9;15.92
47709;PMS7003;33473;51.640;5.892;2023-05-07T06:56:35;25.69;22.9;15.81
47709;PMS7003;33473;51.640;5.892;2023-05-07T07:09:54;23.77;21.59;15.27
47709;PMS7003;33473;51.640;5.892;2023-05-07T07:23:14;22.69;20.94;14.94
47709;PMS7003;33473;51.640;5.892;2023-05-07T07:36:34;21.85;20.61;14.51
47709;PMS7003;33473;51.640;5.892;2023-05-07T07:49:53;20.77;19.19;13.53
47709;PMS7003;33473;51.640;5.892;2023-05-07T08:03:13;18.49;18.54;13.09
47709;PMS7003;33473;51.640;5.892;2023-05-07T08:16:33;17.65;17.89;12.54
47709;PMS7003;33473;51.640;5.892;2023-05-07T08:29:52;18.01;18.1;12.65
47709;PMS7003;33473;51.640;5.892;2023-05-07T08:43:12;17.53;17.56;12.44
47709;PMS7003;33473;51.640;5.892;2023-05-07T08:56:32;17.41;16.9;11.67
47709;PMS7003;33473;51.640;5.892;2023-05-07T09:09:51;15.61;16.25;11.56
47709;PMS7003;33473;51.640;5.892;2023-05-07T09:23:11;12.85;14.62;11.02
47709;PMS7003;33473;51.640;5.892;2023-05-07T09:36:31;12.13;14.29;10.69
47709;PMS7003;33473;51.640;5.892;2023-05-07T09:49:50;12.25;13.53;10.36
47709;PMS7003;33473;51.640;5.892;2023-05-07T10:03:10;11.05;13.31;9.82
47709;PMS7003;33473;51.640;5.892;2023-05-07T10:16:30;9.97;12.33;9.27
47709;PMS7003;33473;51.640;5.892;2023-05-07T10:29:49;10.33;12.33;8.84
47709;PMS7003;33473;51.640;5.892;2023-05-07T10:43:09;9.85;12.11;9.27
47709;PMS7003;33473;51.640;5.892;2023-05-07T10:56:29;6.49;8.29;6.33
47709;PMS7003;33473;51.640;5.892;2023-05-07T11:09:48;6.25;8.84;6.88
47709;PMS7003;33473;51.640;5.892;2023-05-07T11:23:08;7.57;9.93;7.75
47709;PMS7003;33473;51.640;5.892;2023-05-07T11:36:28;6.49;9.06;7.2
47709;PMS7003;33473;51.640;5.892;2023-05-07T11:49:48;8.17;10.36;7.86
47709;PMS7003;33473;51.640;5.892;2023-05-07T12:03:07;7.93;9.71;7.64
47709;PMS7003;33473;51.640;5.892;2023-05-07T12:16:27;6.85;8.84;6.66
47709;PMS7003;33473;51.640;5.892;2023-05-07T12:29:47;6.73;9.38;7.31
47709;PMS7003;33473;51.640;5.892;2023-05-07T12:43:06;4.93;7.09;5.46
47709;PMS7003;33473;51.640;5.892;2023-05-07T12:56:26;5.41;8.08;6.77
47709;PMS7003;33473;51.640;5.892;2023-05-07T13:09:46;6.37;8.29;6.77
47709;PMS7003;33473;51.640;5.892;2023-05-07T13:23:05;6.25;8.08;6.55
47709;PMS7003;33473;51.640;5.892;2023-05-07T13:36:25;5.05;7.86;6.44
47709;PMS7003;33473;51.640;5.892;2023-05-07T13:49:45;5.77;7.97;6.55
47709;PMS7003;33473;51.640;5.892;2023-05-07T14:03:05;5.53;7.42;5.57
47709;PMS7003;33473;51.640;5.892;2023-05-07T14:16:24;0.01;3.06;2.3
47709;PMS7003;33473;51.640;5.892;2023-05-07T14:29:44;0.01;2.84;2.41
47709;PMS7003;33473;51.640;5.892;2023-05-07T14:43:04;0.72;3.06;2.41
47709;PMS7003;33473;51.640;5.892;2023-05-07T14:56:23;0.24;3.28;2.62
47709;PMS7003;33473;51.640;5.892;2023-05-07T15:09:43;0.36;3.5;2.84
47709;PMS7003;33473;51.640;5.892;2023-05-07T15:23:03;0.84;3.82;3.06
47709;PMS7003;33473;51.640;5.892;2023-05-07T15:36:22;3.48;4.48;3.5
47709;PMS7003;33473;51.640;5.892;2023-05-07T15:49:42;2.4;5.24;4.26
47709;PMS7003;33473;51.640;5.892;2023-05-07T16:03:02;4.21;6.88;5.35
47709;PMS7003;33473;51.640;5.892;2023-05-07T16:16:22;0.36;3.5;2.95
47709;PMS7003;33473;51.640;5.892;2023-05-07T16:29:41;0.01;2.73;2.41
47709;PMS7003;33473;51.640;5.892;2023-05-07T16:43:01;0.01;3.17;2.62
47709;PMS7003;33473;51.640;5.892;2023-05-07T16:56:21;2.4;5.35;4.59
47709;PMS7003;33473;51.640;5.892;2023-05-07T17:09:40;3.85;6.66;5.57
47709;PMS7003;33473;51.640;5.892;2023-05-07T17:23:00;6.25;8.73;6.88
47709;PMS7003;33473;51.640;5.892;2023-05-07T17:36:20;8.17;9.27;7.42
47709;PMS7003;33473;51.640;5.892;2023-05-07T17:49:39;7.33;9.93;8.08
47709;PMS7003;33473;51.640;5.892;2023-05-07T18:02:59;6.61;9.17;7.53
47709;PMS7003;33473;51.640;5.892;2023-05-07T18:16:19;5.89;8.4;6.88
47709;PMS7003;33473;51.640;5.892;2023-05-07T18:29:39;5.29;7.86;6.44
47709;PMS7003;33473;51.640;5.892;2023-05-07T18:42:58;4.81;7.64;6.22
47709;PMS7003;33473;51.640;5.892;2023-05-07T18:56:18;5.29;7.53;6.0
47709;PMS7003;33473;51.640;5.892;2023-05-07T19:09:38;5.53;8.29;6.44
47709;PMS7003;33473;51.640;5.892;2023-05-07T19:22:58;7.45;9.71;7.64
47709;PMS7003;33473;51.640;5.892;2023-05-07T19:36:17;7.81;9.49;7.31
47709;PMS7003;33473;51.640;5.892;2023-05-07T19:49:37;9.25;11.56;8.51
47709;PMS7003;33473;51.640;5.892;2023-05-07T20:02:57;10.09;12.22;9.49
47709;PMS7003;33473;51.640;5.892;2023-05-07T20:16:16;11.05;12.0;9.38
47709;PMS7003;33473;51.640;5.892;2023-05-07T20:29:36;10.93;12.11;9.27
47709;PMS7003;33473;51.640;5.892;2023-05-07T20:42:56;12.61;14.18;11.02
47709;PMS7003;33473;51.640;5.892;2023-05-07T20:56:16;11.17;13.42;10.47
47709;PMS7003;33473;51.640;5.892;2023-05-07T21:09:35;11.89;13.2;10.04
47709;PMS7003;33473;51.640;5.892;2023-05-07T21:22:55;13.69;15.71;11.35
47709;PMS7003;33473;51.640;5.892;2023-05-07T21:36:15;13.93;15.81;11.78
47709;PMS7003;33473;51.640;5.892;2023-05-07T21:49:34;13.93;15.71;11.45
47709;PMS7003;33473;51.640;5.892;2023-05-07T22:02:54;14.29;16.25;12.0
47709;PMS7003;33473;51.640;5.892;2023-05-07T22:16:14;13.09;15.16;11.35
47709;PMS7003;33473;51.640;5.892;2023-05-07T22:29:34;10.81;12.98;9.93
47709;PMS7003;33473;51.640;5.892;2023-05-07T22:42:53;12.97;15.05;11.56
47709;PMS7003;33473;51.640;5.892;2023-05-07T22:56:13;13.45;15.49;11.56
47709;PMS7003;33473;51.640;5.892;2023-05-07T23:09:33;17.41;17.67;12.76
47709;PMS7003;33473;51.640;5.892;2023-05-07T23:22:53;17.65;18.32;12.87
47709;PMS7003;33473;51.640;5.892;2023-05-07T23:36:12;16.57;17.56;12.65
47709;PMS7003;33473;51.640;5.892;2023-05-07T23:49:32;16.21;17.56;12.44
